createdAt,value
2022-08-21T00:00:24.401Z,20.36
2022-08-21T00:02:59.823Z,20.34
2022-08-21T00:05:28.378Z,20.31
2022-08-21T00:07:56.516Z,20.26
2022-08-21T00:10:27.456Z,20.18
2022-08-21T00:12:55.453Z,20.18
2022-08-21T00:15:27.721Z,20.13
2022-08-21T00:17:56.550Z,20.03
2022-08-21T00:20:25.130Z,20.01
2022-08-21T00:22:52.995Z,19.96
2022-08-21T00:25:24.213Z,19.93
2022-08-21T00:27:53.145Z,19.88
2022-08-21T00:30:22.920Z,19.87
2022-08-21T00:32:52.749Z,19.82
2022-08-21T00:35:24.011Z,19.86
2022-08-21T00:37:51.724Z,19.83
2022-08-21T00:40:27.324Z,19.84
2022-08-21T00:42:54.879Z,19.84
2022-08-21T00:45:25.968Z,19.83
2022-08-21T00:47:56.261Z,19.83
2022-08-21T00:50:27.096Z,19.77
2022-08-21T00:52:55.052Z,19.83
2022-08-21T00:55:23.825Z,19.83
2022-08-21T00:57:54.418Z,19.83
2022-08-21T01:00:26.621Z,19.80
2022-08-21T01:02:54.107Z,19.76
2022-08-21T01:05:22.288Z,19.72
2022-08-21T01:07:50.070Z,19.76
2022-08-21T01:10:23.690Z,19.69
2022-08-21T01:12:54.189Z,19.75
2022-08-21T01:15:24.353Z,19.73
2022-08-21T01:17:52.675Z,19.71
2022-08-21T01:20:20.872Z,19.70
2022-08-21T01:22:48.446Z,19.69
2022-08-21T01:25:18.114Z,19.67
2022-08-21T01:27:45.631Z,19.67
2022-08-21T01:30:21.319Z,19.66
2022-08-21T01:32:50.323Z,19.65
2022-08-21T01:35:19.426Z,19.63
2022-08-21T01:37:47.869Z,19.61
2022-08-21T01:40:17.897Z,19.59
2022-08-21T01:42:46.957Z,19.56
2022-08-21T01:45:15.846Z,19.54
2022-08-21T01:47:44.962Z,19.52
2022-08-21T01:50:17.342Z,19.51
2022-08-21T01:52:44.937Z,19.48
2022-08-21T01:55:14.100Z,19.48
2022-08-21T01:57:41.822Z,19.44
2022-08-21T02:00:13.245Z,19.44
2022-08-21T02:02:42.527Z,19.42
2022-08-21T02:05:12.253Z,19.40
2022-08-21T02:07:55.358Z,19.38
2022-08-21T02:10:29.391Z,19.34
2022-08-21T02:12:58.314Z,19.33
2022-08-21T02:15:26.046Z,19.33
2022-08-21T02:17:56.860Z,19.33
2022-08-21T02:20:35.693Z,19.31
2022-08-21T02:23:03.586Z,19.30
2022-08-21T02:25:31.844Z,19.31
2022-08-21T02:28:00.965Z,19.34
2022-08-21T02:30:32.071Z,19.40
2022-08-21T02:32:59.820Z,19.51
2022-08-21T02:35:28.335Z,19.72
2022-08-21T02:38:03.108Z,19.93
2022-08-21T02:40:33.571Z,20.03
2022-08-21T02:43:02.610Z,20.16
2022-08-21T02:45:30.794Z,20.35
2022-08-21T02:48:02.670Z,20.51
2022-08-21T02:50:41.112Z,20.66
2022-08-21T02:53:11.272Z,20.74
2022-08-21T02:55:39.453Z,20.81
2022-08-21T02:58:08.973Z,20.82
2022-08-21T03:00:38.223Z,20.99
2022-08-21T03:03:07.236Z,21.37
2022-08-21T03:05:36.536Z,21.71
2022-08-21T03:08:07.889Z,22.06
2022-08-21T03:10:35.519Z,22.30
2022-08-21T03:13:04.785Z,22.58
2022-08-21T03:15:33.083Z,22.87
2022-08-21T03:18:00.959Z,23.06
2022-08-21T03:20:29.827Z,23.26
2022-08-21T03:22:57.583Z,23.49
2022-08-21T03:25:40.440Z,23.76
2022-08-21T03:28:13.871Z,23.99
2022-08-21T03:30:43.391Z,24.04
2022-08-21T03:33:13.165Z,24.00
2022-08-21T03:35:50.358Z,23.87
2022-08-21T03:38:18.007Z,23.96
2022-08-21T03:40:45.538Z,24.29
2022-08-21T03:43:13.047Z,24.61
2022-08-21T03:45:40.793Z,24.84
2022-08-21T03:48:10.493Z,24.82
2022-08-21T03:50:42.422Z,24.86
2022-08-21T03:53:17.623Z,25.04
2022-08-21T03:55:50.098Z,25.46
2022-08-21T03:58:20.425Z,25.86
2022-08-21T04:00:50.648Z,26.13
2022-08-21T04:03:18.695Z,26.33
2022-08-21T04:05:48.110Z,26.53
2022-08-21T04:08:19.223Z,26.78
2022-08-21T04:10:48.837Z,26.86
2022-08-21T04:13:16.391Z,26.85
2022-08-21T04:15:44.041Z,26.78
2022-08-21T04:18:12.089Z,26.71
2022-08-21T04:20:40.577Z,26.72
2022-08-21T04:23:08.297Z,26.79
2022-08-21T04:25:36.660Z,26.90
2022-08-21T04:28:05.151Z,27.09
2022-08-21T04:30:34.261Z,27.44
2022-08-21T04:33:01.917Z,27.92
2022-08-21T04:35:29.888Z,28.14
2022-08-21T04:37:58.267Z,28.40
2022-08-21T04:40:28.789Z,28.81
2022-08-21T04:43:01.115Z,28.95
2022-08-21T04:45:33.015Z,29.16
2022-08-21T04:48:03.304Z,29.34
2022-08-21T04:50:32.494Z,29.29
2022-08-21T04:53:13.360Z,29.28
2022-08-21T04:55:43.319Z,29.37
2022-08-21T04:58:14.328Z,29.39
2022-08-21T05:00:42.846Z,29.57
2022-08-21T05:03:14.086Z,29.43
2022-08-21T05:05:41.948Z,29.43
2022-08-21T05:08:13.411Z,29.37
2022-08-21T05:10:40.996Z,29.42
2022-08-21T05:13:08.630Z,29.53
2022-08-21T05:15:36.148Z,29.69
2022-08-21T05:18:03.718Z,29.91
2022-08-21T05:20:31.253Z,30.02
2022-08-21T05:22:59.044Z,30.11
2022-08-21T05:25:29.344Z,30.18
2022-08-21T05:28:00.542Z,30.05
2022-08-21T05:30:28.722Z,29.93
2022-08-21T05:33:00.986Z,29.89
2022-08-21T05:35:30.297Z,29.97
2022-08-21T05:37:58.566Z,30.01
2022-08-21T05:40:26.783Z,29.99
2022-08-21T05:42:55.984Z,30.12
2022-08-21T05:45:42.025Z,30.37
2022-08-21T05:48:16.724Z,30.83
2022-08-21T05:50:46.201Z,30.99
2022-08-21T05:53:15.252Z,30.86
2022-08-21T05:55:46.303Z,30.61
2022-08-21T05:58:20.547Z,30.52
2022-08-21T06:00:50.621Z,30.64
2022-08-21T06:03:27.409Z,30.88
2022-08-21T06:05:55.851Z,31.04
2022-08-21T06:08:24.068Z,31.17
2022-08-21T06:10:53.133Z,31.05
2022-08-21T06:13:21.702Z,31.24
2022-08-21T06:15:50.423Z,31.41
2022-08-21T06:18:18.271Z,31.63
2022-08-21T06:20:45.843Z,31.82
2022-08-21T06:23:14.083Z,31.99
2022-08-21T06:25:41.617Z,32.38
2022-08-21T06:28:11.124Z,32.64
2022-08-21T06:30:40.646Z,33.19
2022-08-21T06:33:08.295Z,33.56
2022-08-21T06:35:36.722Z,33.86
2022-08-21T06:38:08.257Z,33.94
2022-08-21T06:40:35.785Z,34.19
2022-08-21T06:43:12.147Z,34.09
2022-08-21T06:45:43.098Z,33.75
2022-08-21T06:48:13.523Z,33.26
2022-08-21T06:50:43.191Z,32.97
2022-08-21T06:53:14.502Z,32.76
2022-08-21T06:55:43.373Z,32.59
2022-08-21T06:58:11.717Z,32.72
2022-08-21T07:00:46.316Z,32.78
2022-08-21T07:03:28.512Z,33.04
2022-08-21T07:05:56.507Z,33.19
2022-08-21T07:08:24.037Z,33.18
2022-08-21T07:10:52.532Z,33.16
2022-08-21T07:13:20.105Z,33.54
2022-08-21T07:15:47.572Z,33.42
2022-08-21T07:18:15.555Z,33.26
2022-08-21T07:20:43.432Z,33.39
2022-08-21T07:23:27.956Z,33.21
2022-08-21T07:25:55.994Z,33.05
2022-08-21T07:28:24.012Z,33.33
2022-08-21T07:30:56.815Z,33.75
2022-08-21T07:33:25.719Z,34.04
2022-08-21T07:35:53.460Z,33.92
2022-08-21T07:38:21.154Z,33.67
2022-08-21T07:40:50.368Z,33.59
2022-08-21T07:43:19.331Z,33.53
2022-08-21T07:45:46.944Z,33.69
2022-08-21T07:48:14.534Z,33.54
2022-08-21T07:50:42.586Z,33.42
2022-08-21T07:53:10.075Z,33.59
2022-08-21T07:55:37.689Z,33.82
2022-08-21T07:58:05.293Z,33.87
2022-08-21T08:00:32.843Z,33.95
2022-08-21T08:03:00.886Z,34.34
2022-08-21T08:05:31.323Z,34.63
2022-08-21T08:07:59.392Z,34.57
2022-08-21T08:10:27.714Z,34.41
2022-08-21T08:12:56.040Z,34.64
2022-08-21T08:15:27.959Z,34.46
2022-08-21T08:17:56.807Z,34.25
2022-08-21T08:20:27.586Z,33.80
2022-08-21T08:22:56.174Z,33.54
2022-08-21T08:25:25.209Z,33.19
2022-08-21T08:27:52.667Z,33.13
2022-08-21T08:30:23.080Z,33.19
2022-08-21T08:32:50.872Z,33.34
2022-08-21T08:35:19.275Z,33.31
2022-08-21T08:37:52.280Z,33.11
2022-08-21T08:40:39.438Z,33.20
2022-08-21T08:43:14.543Z,33.35
2022-08-21T08:45:48.663Z,33.44
2022-08-21T08:48:40.986Z,33.50
2022-08-21T08:51:19.095Z,33.61
2022-08-21T08:54:04.275Z,33.68
2022-08-21T08:56:33.997Z,33.61
2022-08-21T08:59:19.894Z,33.73
2022-08-21T09:01:48.469Z,33.77
2022-08-21T09:04:27.119Z,33.83
2022-08-21T09:07:08.108Z,33.57
2022-08-21T09:09:50.357Z,33.47
2022-08-21T09:12:35.200Z,33.55
2022-08-21T09:15:13.799Z,33.52
2022-08-21T09:18:15.168Z,33.64
2022-08-21T09:20:57.186Z,33.77
2022-08-21T09:23:39.738Z,33.59
2022-08-21T09:26:13.221Z,33.64
2022-08-21T09:28:44.680Z,33.61
2022-08-21T09:31:28.475Z,33.35
2022-08-21T09:34:07.490Z,33.34
2022-08-21T09:36:41.291Z,33.16
2022-08-21T09:39:10.621Z,33.26
2022-08-21T09:41:39.679Z,33.33
2022-08-21T09:44:09.530Z,33.34
2022-08-21T09:46:37.626Z,33.48
2022-08-21T09:49:06.970Z,33.36
2022-08-21T09:51:53.202Z,33.25
2022-08-21T09:54:25.783Z,33.13
2022-08-21T09:57:18.290Z,33.18
2022-08-21T09:59:48.163Z,33.25
2022-08-21T10:02:32.343Z,33.50
2022-08-21T10:05:08.546Z,33.63
2022-08-21T10:07:39.289Z,33.74
2022-08-21T10:10:21.097Z,33.66
2022-08-21T10:13:07.427Z,33.55
2022-08-21T10:15:49.843Z,33.21
2022-08-21T10:18:27.375Z,32.97
2022-08-21T10:20:57.539Z,32.73
2022-08-21T10:23:39.109Z,32.47
2022-08-21T10:26:27.680Z,32.42
2022-08-21T10:29:04.461Z,32.21
2022-08-21T10:31:48.156Z,31.99
2022-08-21T10:34:57.949Z,31.96
2022-08-21T10:37:43.575Z,32.10
2022-08-21T10:40:41.509Z,32.13
2022-08-21T10:43:36.565Z,32.09
2022-08-21T10:46:25.316Z,32.18
2022-08-21T10:49:00.554Z,32.24
2022-08-21T10:52:10.849Z,32.45
2022-08-21T10:54:57.239Z,32.69
2022-08-21T10:57:39.842Z,33.00
2022-08-21T11:00:12.630Z,33.17
2022-08-21T11:02:43.978Z,33.12
2022-08-21T11:05:18.276Z,33.05
2022-08-21T11:07:54.981Z,32.96
2022-08-21T11:10:25.614Z,32.90
2022-08-21T11:13:01.856Z,32.96
2022-08-21T11:15:40.217Z,32.99
2022-08-21T11:18:29.630Z,32.89
2022-08-21T11:21:28.380Z,32.63
2022-08-21T11:24:21.021Z,32.45
2022-08-21T11:27:01.656Z,32.42
2022-08-21T11:29:38.348Z,32.48
2022-08-21T11:32:37.593Z,32.56
2022-08-21T11:35:39.029Z,32.52
2022-08-21T11:38:40.628Z,32.47
2022-08-21T11:41:31.392Z,32.26
2022-08-21T11:44:24.851Z,32.18
2022-08-21T11:47:14.090Z,32.14
2022-08-21T11:50:29.753Z,32.04
2022-08-21T11:53:17.927Z,31.86
2022-08-21T11:55:50.525Z,31.76
2022-08-21T11:58:25.589Z,31.66
2022-08-21T12:01:02.219Z,31.74
2022-08-21T12:03:34.522Z,31.73
2022-08-21T12:06:06.767Z,31.74
2022-08-21T12:08:47.282Z,31.51
2022-08-21T12:11:17.839Z,31.24
2022-08-21T12:14:00.042Z,31.13
2022-08-21T12:16:37.101Z,31.14
2022-08-21T12:19:11.181Z,31.15
2022-08-21T12:21:53.305Z,31.21
2022-08-21T12:24:38.253Z,31.14
2022-08-21T12:27:30.791Z,31.07
2022-08-21T12:30:02.906Z,31.01
2022-08-21T12:32:44.083Z,30.99
2022-08-21T12:35:25.180Z,31.01
2022-08-21T12:38:21.585Z,31.05
2022-08-21T12:41:00.329Z,30.96
2022-08-21T12:43:34.974Z,30.87
2022-08-21T12:46:05.732Z,30.88
2022-08-21T12:48:52.293Z,30.86
2022-08-21T12:51:27.277Z,30.82
2022-08-21T12:53:59.844Z,30.83
2022-08-21T12:56:30.121Z,30.76
2022-08-21T12:59:06.442Z,30.76
2022-08-21T13:01:47.275Z,30.73
2022-08-21T13:04:21.503Z,30.72
2022-08-21T13:07:01.019Z,30.71
2022-08-21T13:09:31.336Z,30.69
2022-08-21T13:12:00.333Z,30.69
2022-08-21T13:14:27.714Z,30.70
2022-08-21T13:17:00.267Z,30.72
2022-08-21T13:19:28.156Z,30.68
2022-08-21T13:21:55.763Z,30.70
2022-08-21T13:24:42.396Z,30.74
2022-08-21T13:27:26.474Z,30.71
2022-08-21T13:30:08.584Z,30.69
2022-08-21T13:32:39.067Z,30.67
2022-08-21T13:35:23.141Z,30.67
2022-08-21T13:37:55.957Z,30.65
2022-08-21T13:40:31.357Z,30.61
2022-08-21T13:43:00.557Z,30.56
2022-08-21T13:45:37.095Z,30.55
2022-08-21T13:48:06.845Z,30.53
2022-08-21T13:50:38.528Z,30.45
2022-08-21T13:53:09.342Z,30.48
2022-08-21T13:55:44.785Z,30.45
2022-08-21T13:58:13.987Z,30.42
2022-08-21T14:00:51.085Z,30.43
2022-08-21T14:03:30.196Z,30.38
2022-08-21T14:06:00.224Z,30.36
2022-08-21T14:08:42.266Z,30.32
2022-08-21T14:11:14.623Z,30.24
2022-08-21T14:13:49.863Z,30.24
2022-08-21T14:16:24.106Z,30.20
2022-08-21T14:18:55.337Z,30.17
2022-08-21T14:21:38.323Z,30.12
2022-08-21T14:24:15.415Z,30.07
2022-08-21T14:26:52.135Z,30.03
2022-08-21T14:29:23.862Z,29.99
2022-08-21T14:31:53.825Z,29.96
2022-08-21T14:34:23.243Z,29.90
2022-08-21T14:36:51.732Z,29.87
2022-08-21T14:39:19.278Z,29.83
2022-08-21T14:41:50.412Z,29.79
2022-08-21T14:44:21.175Z,29.72
2022-08-21T14:46:56.507Z,29.72
2022-08-21T14:49:27.723Z,29.65
2022-08-21T14:51:59.528Z,29.63
2022-08-21T14:54:32.668Z,29.55
2022-08-21T14:57:04.677Z,29.52
2022-08-21T14:59:34.386Z,29.46
2022-08-21T15:02:05.509Z,29.42
2022-08-21T15:04:34.380Z,29.37
2022-08-21T15:07:02.162Z,29.31
2022-08-21T15:09:29.996Z,29.27
2022-08-21T15:11:59.931Z,29.21
2022-08-21T15:14:31.095Z,29.16
2022-08-21T15:16:58.722Z,29.10
2022-08-21T15:19:26.438Z,29.05
2022-08-21T15:21:55.050Z,29.00
2022-08-21T15:24:22.707Z,28.92
2022-08-21T15:26:50.627Z,28.86
2022-08-21T15:29:22.546Z,28.80
2022-08-21T15:31:57.821Z,28.72
2022-08-21T15:34:28.401Z,28.63
2022-08-21T15:36:57.726Z,28.56
2022-08-21T15:39:31.125Z,28.45
2022-08-21T15:41:59.943Z,28.37
2022-08-21T15:44:38.990Z,28.26
2022-08-21T15:47:18.678Z,28.23
2022-08-21T15:49:47.385Z,28.15
2022-08-21T15:52:16.812Z,28.04
2022-08-21T15:54:44.455Z,27.95
2022-08-21T15:57:16.398Z,27.86
2022-08-21T15:59:48.421Z,27.76
2022-08-21T16:02:20.532Z,27.67
2022-08-21T16:04:48.471Z,27.59
2022-08-21T16:07:17.176Z,27.50
2022-08-21T16:09:44.913Z,27.42
2022-08-21T16:12:25.446Z,27.32
2022-08-21T16:14:54.560Z,27.22
2022-08-21T16:17:28.132Z,27.13
2022-08-21T16:19:56.236Z,27.02
2022-08-21T16:22:23.786Z,26.93
2022-08-21T16:24:51.282Z,26.84
2022-08-21T16:27:19.795Z,26.77
2022-08-21T16:29:48.034Z,26.67
2022-08-21T16:32:18.464Z,26.53
2022-08-21T16:34:48.532Z,26.48
2022-08-21T16:37:23.948Z,26.42
2022-08-21T16:39:53.345Z,26.33
2022-08-21T16:42:24.234Z,26.23
2022-08-21T16:44:52.216Z,26.13
2022-08-21T16:47:26.933Z,26.07
2022-08-21T16:49:55.240Z,25.98
2022-08-21T16:52:22.753Z,25.92
2022-08-21T16:54:50.862Z,25.84
2022-08-21T16:57:18.532Z,25.76
2022-08-21T16:59:46.137Z,25.68
2022-08-21T17:02:29.137Z,25.61
2022-08-21T17:04:56.636Z,25.53
2022-08-21T17:07:24.742Z,25.46
2022-08-21T17:09:52.452Z,25.33
2022-08-21T17:12:21.450Z,25.30
2022-08-21T17:14:50.768Z,25.23
2022-08-21T17:17:18.658Z,25.16
2022-08-21T17:19:46.834Z,25.10
2022-08-21T17:22:14.352Z,25.03
2022-08-21T17:24:42.676Z,24.98
2022-08-21T17:27:10.443Z,24.91
2022-08-21T17:29:40.310Z,24.87
2022-08-21T17:32:12.196Z,24.76
2022-08-21T17:34:40.075Z,24.76
2022-08-21T17:37:08.218Z,24.70
2022-08-21T17:39:36.469Z,24.64
2022-08-21T17:42:09.837Z,24.60
2022-08-21T17:44:39.675Z,24.55
2022-08-21T17:47:08.086Z,24.50
2022-08-21T17:49:36.905Z,24.46
2022-08-21T17:52:05.229Z,24.39
2022-08-21T17:54:32.766Z,24.34
2022-08-21T17:57:01.337Z,24.27
2022-08-21T17:59:29.205Z,24.24
2022-08-21T18:02:01.839Z,24.19
2022-08-21T18:04:30.662Z,24.14
2022-08-21T18:06:58.416Z,24.07
2022-08-21T18:09:28.822Z,24.03
2022-08-21T18:11:58.977Z,23.99
2022-08-21T18:14:33.424Z,23.90
2022-08-21T18:17:01.416Z,23.90
2022-08-21T18:19:28.925Z,23.89
2022-08-21T18:21:58.868Z,23.88
2022-08-21T18:24:29.027Z,23.83
2022-08-21T18:26:56.504Z,23.82
2022-08-21T18:29:24.123Z,23.82
2022-08-21T18:31:52.840Z,23.81
2022-08-21T18:34:23.627Z,23.80
2022-08-21T18:36:52.390Z,23.78
2022-08-21T18:39:35.822Z,23.68
2022-08-21T18:42:08.539Z,23.70
2022-08-21T18:44:36.400Z,23.67
2022-08-21T18:47:14.635Z,23.63
2022-08-21T18:49:42.593Z,23.60
2022-08-21T18:52:10.574Z,23.58
2022-08-21T18:54:45.390Z,23.54
2022-08-21T18:57:13.055Z,23.52
2022-08-21T18:59:43.126Z,23.50
2022-08-21T19:02:10.624Z,23.46
2022-08-21T19:07:26.841Z,23.37
2022-08-21T19:10:24.540Z,23.31
2022-08-21T19:12:44.580Z,23.27
2022-08-21T19:15:16.097Z,23.21
2022-08-21T19:17:46.439Z,23.18
2022-08-21T19:23:29.121Z,23.16
2022-08-21T19:26:00.899Z,23.17
2022-08-21T19:28:31.372Z,23.18
2022-08-21T19:31:07.284Z,23.19
2022-08-21T19:33:41.791Z,23.24
2022-08-21T19:36:12.491Z,23.26
2022-08-21T19:38:41.898Z,23.29
2022-08-21T19:41:11.716Z,23.29
2022-08-21T19:43:50.284Z,23.28
2022-08-21T19:46:33.011Z,23.26
2022-08-21T19:49:04.479Z,23.24
2022-08-21T19:51:35.798Z,23.22
2022-08-21T19:54:03.897Z,23.20
2022-08-21T19:59:24.747Z,23.20
2022-08-21T20:01:52.770Z,23.20
2022-08-21T20:04:21.044Z,23.17
2022-08-21T20:06:48.918Z,23.11
2022-08-21T20:09:17.375Z,23.11
2022-08-21T20:11:48.118Z,23.05
2022-08-21T20:14:19.303Z,23.00
2022-08-21T20:16:52.688Z,22.91
2022-08-21T20:19:22.223Z,22.87
2022-08-21T20:21:49.726Z,22.77
2022-08-21T20:24:17.395Z,22.71
2022-08-21T20:26:49.671Z,22.60
2022-08-21T20:32:12.036Z,22.47
2022-08-21T20:34:41.558Z,22.42
2022-08-21T20:37:12.999Z,22.39
2022-08-21T20:39:40.966Z,22.34
2022-08-21T20:42:10.824Z,22.29
2022-08-21T20:44:46.844Z,22.24
2022-08-21T20:47:16.019Z,22.17
2022-08-21T20:49:48.541Z,22.14
2022-08-21T20:55:11.366Z,22.08
2022-08-21T20:58:04.331Z,22.07
2022-08-21T21:00:38.174Z,22.06
2022-08-21T21:03:30.073Z,22.05
2022-08-21T21:06:21.589Z,22.05
2022-08-21T21:08:51.668Z,22.01
2022-08-21T21:11:56.209Z,21.95
2022-08-21T21:14:51.792Z,21.83
2022-08-21T21:17:30.524Z,21.70
2022-08-21T21:20:33.170Z,21.55
2022-08-21T21:23:20.519Z,21.38
2022-08-21T21:25:59.736Z,21.22
2022-08-21T21:28:46.245Z,21.10
2022-08-21T21:31:14.388Z,20.99
2022-08-21T21:33:42.019Z,20.89
2022-08-21T21:36:22.781Z,20.85
2022-08-21T21:39:01.271Z,20.80
2022-08-21T21:41:42.882Z,20.76
2022-08-21T21:44:51.342Z,20.72
2022-08-21T21:47:21.279Z,20.67
2022-08-21T21:50:18.657Z,20.66
2022-08-21T21:53:12.377Z,20.63
2022-08-21T21:56:14.831Z,20.60
2022-08-21T21:59:23.258Z,20.59
2022-08-21T22:02:13.007Z,20.55
2022-08-21T22:04:57.903Z,20.52
2022-08-21T22:07:58.250Z,20.52
2022-08-21T22:10:42.910Z,20.41
2022-08-21T22:13:38.661Z,20.47
2022-08-21T22:16:07.850Z,20.42
2022-08-21T22:18:45.279Z,20.43
2022-08-21T22:21:23.885Z,20.40
2022-08-21T22:23:56.067Z,20.37
2022-08-21T22:26:34.896Z,20.33
2022-08-21T22:29:05.700Z,20.30
2022-08-21T22:31:35.187Z,20.28
2022-08-21T22:34:19.312Z,20.26
2022-08-21T22:36:55.574Z,20.24
2022-08-21T22:39:38.541Z,20.22
2022-08-21T22:42:20.726Z,20.18
2022-08-21T22:45:04.799Z,20.20
2022-08-21T22:47:43.166Z,20.18
2022-08-21T22:50:28.137Z,20.18
2022-08-21T22:53:00.825Z,20.14
2022-08-21T22:55:46.120Z,20.12
2022-08-21T22:58:22.434Z,20.06
2022-08-21T23:00:54.733Z,20.02
2022-08-21T23:03:27.122Z,19.97
2022-08-21T23:06:12.939Z,19.94
2022-08-21T23:08:53.290Z,19.91
2022-08-21T23:11:28.335Z,19.87
2022-08-21T23:13:56.034Z,19.82
2022-08-21T23:16:29.041Z,19.80
2022-08-21T23:19:17.534Z,19.81
2022-08-21T23:21:53.642Z,19.79
2022-08-21T23:24:33.499Z,19.77
2022-08-21T23:27:10.463Z,19.76
2022-08-21T23:30:07.375Z,19.76
2022-08-21T23:32:55.337Z,19.73
2022-08-21T23:36:07.630Z,19.70
2022-08-21T23:38:51.585Z,19.66
2022-08-21T23:41:58.091Z,19.60
2022-08-21T23:44:40.949Z,19.53
2022-08-21T23:47:25.441Z,19.48
2022-08-21T23:49:55.653Z,19.45
2022-08-21T23:52:50.141Z,19.41
2022-08-21T23:55:39.659Z,19.33
2022-08-21T23:58:13.290Z,19.24
